createdAt,value
2022-12-03T00:04:57.732Z,76.86
2022-12-03T00:10:04.805Z,77.14
2022-12-03T00:15:13.420Z,77.07
2022-12-03T00:20:23.133Z,77.10
2022-12-03T00:25:30.354Z,77.16
2022-12-03T00:30:37.337Z,77.04
2022-12-03T00:35:44.175Z,77.12
2022-12-03T00:40:51.045Z,77.31
2022-12-03T00:45:57.964Z,77.18
2022-12-03T00:51:04.959Z,77.29
2022-12-03T00:56:13.642Z,77.28
2022-12-03T01:01:21.180Z,77.38
2022-12-03T01:06:28.504Z,77.38
2022-12-03T01:11:41.555Z,77.55
2022-12-03T01:16:49.380Z,77.50
2022-12-03T01:21:57.000Z,77.58
2022-12-03T01:27:03.863Z,77.36
2022-12-03T01:32:18.116Z,77.33
2022-12-03T01:37:27.244Z,77.40
2022-12-03T01:42:36.872Z,77.53
2022-12-03T01:47:43.848Z,77.64
2022-12-03T01:52:50.765Z,77.62
2022-12-03T01:58:00.652Z,77.44
2022-12-03T02:03:13.044Z,77.65
2022-12-03T02:08:34.744Z,77.67
2022-12-03T02:13:41.708Z,77.72
2022-12-03T02:18:49.049Z,77.81
2022-12-03T02:24:06.244Z,77.81
2022-12-03T02:29:13.476Z,77.88
2022-12-03T02:34:38.556Z,77.92
2022-12-03T02:39:48.716Z,77.80
2022-12-03T02:45:00.661Z,77.91
2022-12-03T02:50:13.495Z,77.96
2022-12-03T02:55:21.181Z,77.88
2022-12-03T03:00:28.216Z,77.92
2022-12-03T03:05:37.473Z,77.90
2022-12-03T03:10:45.629Z,77.91
2022-12-03T03:15:53.440Z,77.81
2022-12-03T03:21:00.307Z,77.85
2022-12-03T03:26:10.770Z,77.91
2022-12-03T03:31:22.702Z,77.85
2022-12-03T03:36:29.691Z,77.98
2022-12-03T03:41:38.082Z,77.99
2022-12-03T03:46:45.322Z,78.09
2022-12-03T03:51:52.375Z,78.17
2022-12-03T03:56:59.379Z,78.05
2022-12-03T04:02:06.279Z,78.15
2022-12-03T04:07:13.103Z,78.22
2022-12-03T04:12:37.621Z,78.19
2022-12-03T04:17:44.460Z,78.19
2022-12-03T04:22:51.369Z,78.10
2022-12-03T04:28:24.141Z,78.16
2022-12-03T04:33:48.904Z,78.32
2022-12-03T04:38:55.752Z,78.25
2022-12-03T04:44:19.496Z,78.31
2022-12-03T04:49:26.379Z,78.33
2022-12-03T04:54:33.439Z,78.29
2022-12-03T04:59:40.359Z,78.26
2022-12-03T05:04:47.306Z,78.27
2022-12-03T05:09:56.090Z,78.45
2022-12-03T05:15:02.975Z,78.44
2022-12-03T05:20:30.193Z,78.41
2022-12-03T05:25:37.083Z,78.37
2022-12-03T05:30:44.336Z,78.60
2022-12-03T05:35:51.219Z,78.63
2022-12-03T05:40:58.130Z,78.60
2022-12-03T05:46:05.030Z,78.60
2022-12-03T05:51:11.951Z,78.51
2022-12-03T05:56:18.862Z,78.64
2022-12-03T06:01:26.072Z,78.77
2022-12-03T06:06:33.011Z,78.67
2022-12-03T06:11:40.805Z,78.67
2022-12-03T06:16:47.691Z,78.79
2022-12-03T06:21:54.509Z,78.82
2022-12-03T06:27:01.368Z,78.86
2022-12-03T06:32:08.678Z,78.78
2022-12-03T06:37:15.710Z,79.05
2022-12-03T06:42:22.667Z,79.23
2022-12-03T06:47:29.577Z,78.92
2022-12-03T06:52:36.893Z,79.13
2022-12-03T06:57:43.775Z,79.09
2022-12-03T07:02:50.843Z,79.13
2022-12-03T07:07:57.765Z,79.11
2022-12-03T07:13:04.750Z,79.19
2022-12-03T07:18:11.593Z,79.14
2022-12-03T07:23:18.513Z,79.37
2022-12-03T07:28:25.453Z,79.29
2022-12-03T07:33:32.491Z,79.29
2022-12-03T07:38:39.611Z,79.21
2022-12-03T07:43:46.573Z,79.24
2022-12-03T07:48:53.618Z,79.26
2022-12-03T07:54:00.639Z,79.24
2022-12-03T07:59:07.578Z,79.48
2022-12-03T08:04:15.025Z,79.50
2022-12-03T08:09:21.940Z,79.49
2022-12-03T08:14:30.904Z,79.61
2022-12-03T08:19:37.780Z,79.51
2022-12-03T08:24:45.284Z,79.57
2022-12-03T08:29:55.298Z,79.45
2022-12-03T08:35:10.368Z,79.43
2022-12-03T08:40:34.634Z,79.59
2022-12-03T08:45:44.384Z,79.78
2022-12-03T08:50:51.462Z,79.79
2022-12-03T08:56:00.843Z,79.81
2022-12-03T09:01:26.122Z,79.79
2022-12-03T09:06:33.052Z,79.61
2022-12-03T09:11:40.569Z,79.70
2022-12-03T09:16:48.030Z,79.83
2022-12-03T09:21:55.565Z,79.79
2022-12-03T09:27:02.457Z,79.78
2022-12-03T09:32:13.689Z,79.83
2022-12-03T09:37:23.623Z,79.75
2022-12-03T09:42:30.630Z,79.74
2022-12-03T09:47:37.762Z,79.77
2022-12-03T09:52:45.318Z,79.99
2022-12-03T09:57:52.345Z,79.83
2022-12-03T10:03:03.108Z,79.87
2022-12-03T10:08:12.809Z,79.72
2022-12-03T10:13:26.065Z,79.73
2022-12-03T10:18:41.191Z,79.73
2022-12-03T10:23:55.182Z,79.67
2022-12-03T10:29:02.356Z,79.77
2022-12-03T10:34:10.201Z,79.90
2022-12-03T10:39:18.081Z,79.87
2022-12-03T10:44:25.774Z,79.96
2022-12-03T10:49:33.068Z,80.08
2022-12-03T10:54:39.969Z,80.02
2022-12-03T10:59:47.126Z,80.09
2022-12-03T11:04:55.593Z,79.93
2022-12-03T11:10:02.861Z,79.85
2022-12-03T11:15:17.873Z,79.86
2022-12-03T11:21:06.672Z,79.76
2022-12-03T11:26:18.903Z,79.77
2022-12-03T11:31:42.053Z,79.76
2022-12-03T11:37:20.241Z,79.70
2022-12-03T11:42:41.858Z,79.67
2022-12-03T11:48:03.024Z,79.64
2022-12-03T11:53:18.103Z,79.60
2022-12-03T11:58:27.968Z,79.77
2022-12-03T12:03:37.345Z,79.85
2022-12-03T12:08:57.935Z,79.80
2022-12-03T12:14:05.844Z,79.65
2022-12-03T12:19:31.421Z,79.72
2022-12-03T12:24:48.558Z,79.94
2022-12-03T12:29:58.212Z,79.81
2022-12-03T12:35:17.065Z,79.87
2022-12-03T12:40:26.944Z,79.95
2022-12-03T12:45:41.274Z,79.86
2022-12-03T12:50:50.029Z,79.85
2022-12-03T12:55:59.879Z,80.01
2022-12-03T13:01:13.649Z,79.98
2022-12-03T13:06:24.860Z,79.88
2022-12-03T13:11:41.365Z,80.05
2022-12-03T13:16:49.545Z,80.05
2022-12-03T13:21:58.133Z,80.08
2022-12-03T13:27:21.586Z,80.26
2022-12-03T13:32:32.533Z,80.16
2022-12-03T13:38:02.907Z,80.03
2022-12-03T13:43:15.460Z,80.17
2022-12-03T13:48:25.365Z,80.31
2022-12-03T13:53:41.258Z,80.37
2022-12-03T13:58:48.170Z,80.34
2022-12-03T14:03:55.272Z,80.26
2022-12-03T14:09:02.227Z,80.26
2022-12-03T14:14:09.217Z,80.23
2022-12-03T14:19:16.122Z,80.28
2022-12-03T14:24:22.996Z,80.29
2022-12-03T14:29:30.087Z,80.33
2022-12-03T14:34:36.957Z,80.16
2022-12-03T14:39:43.973Z,80.28
2022-12-03T14:44:52.399Z,80.42
2022-12-03T14:50:00.035Z,80.33
2022-12-03T14:55:07.538Z,80.22
2022-12-03T15:00:18.179Z,80.30
2022-12-03T15:05:28.821Z,80.40
2022-12-03T15:10:36.307Z,80.43
2022-12-03T15:15:43.506Z,80.44
2022-12-03T15:20:50.706Z,80.53
2022-12-03T15:25:57.660Z,80.54
2022-12-03T15:31:04.619Z,80.56
2022-12-03T15:36:12.273Z,80.51
2022-12-03T15:41:24.372Z,80.55
2022-12-03T15:46:32.200Z,80.55
2022-12-03T15:51:37.548Z,80.55
2022-12-03T15:56:44.400Z,80.57
2022-12-03T16:01:51.493Z,80.52
2022-12-03T16:06:58.328Z,80.63
2022-12-03T16:12:05.717Z,80.61
2022-12-03T16:17:12.543Z,80.67
2022-12-03T16:22:19.611Z,80.65
2022-12-03T16:27:26.457Z,80.60
2022-12-03T16:32:33.317Z,80.63
2022-12-03T16:37:40.623Z,80.56
2022-12-03T16:42:47.681Z,80.61
2022-12-03T16:47:54.715Z,80.77
2022-12-03T16:53:01.722Z,80.69
2022-12-03T16:58:09.299Z,80.81
2022-12-03T17:03:17.975Z,80.87
2022-12-03T17:08:25.116Z,80.89
2022-12-03T17:13:31.985Z,80.74
2022-12-03T17:18:38.803Z,80.74
2022-12-03T17:23:48.957Z,80.90
2022-12-03T17:28:55.803Z,80.90
2022-12-03T17:34:02.727Z,80.95
2022-12-03T17:39:09.633Z,80.86
2022-12-03T17:44:20.980Z,81.01
2022-12-03T17:49:31.577Z,80.86
2022-12-03T17:55:08.526Z,80.84
2022-12-03T18:00:06.984Z,80.96
2022-12-03T18:05:19.465Z,81.00
2022-12-03T18:10:26.499Z,81.06
2022-12-03T18:15:34.033Z,81.14
2022-12-03T18:20:41.188Z,81.01
2022-12-03T18:25:48.064Z,81.07
2022-12-03T18:30:55.080Z,80.98
2022-12-03T18:36:02.006Z,81.02
2022-12-03T18:41:09.017Z,81.00
2022-12-03T18:46:45.109Z,81.05
2022-12-03T18:51:44.462Z,81.18
2022-12-03T18:56:51.517Z,81.00
2022-12-03T19:01:58.503Z,81.14
2022-12-03T19:07:05.419Z,81.20
2022-12-03T19:12:14.734Z,81.16
2022-12-03T19:17:22.619Z,81.19
2022-12-03T19:22:29.988Z,81.26
2022-12-03T19:27:36.965Z,81.22
2022-12-03T19:32:45.358Z,81.35
2022-12-03T19:37:52.413Z,81.41
2022-12-03T19:42:59.342Z,81.20
2022-12-03T19:48:06.692Z,81.27
2022-12-03T19:53:13.544Z,81.36
2022-12-03T19:58:20.407Z,81.47
2022-12-03T20:03:27.237Z,81.43
2022-12-03T20:08:37.392Z,81.45
2022-12-03T20:13:49.276Z,81.39
2022-12-03T20:19:02.191Z,81.45
2022-12-03T20:24:11.476Z,81.60
2022-12-03T20:29:18.378Z,81.52
2022-12-03T20:34:25.374Z,81.54
2022-12-03T20:39:32.674Z,81.64
2022-12-03T20:44:39.659Z,81.46
2022-12-03T20:49:46.582Z,81.62
2022-12-03T20:54:53.450Z,81.75
2022-12-03T21:00:00.370Z,81.59
2022-12-03T21:05:08.021Z,81.69
2022-12-03T21:10:29.264Z,81.82
2022-12-03T21:15:36.151Z,81.76
2022-12-03T21:20:43.912Z,81.77
2022-12-03T21:25:59.362Z,81.67
2022-12-03T21:31:12.624Z,81.67
2022-12-03T21:36:19.855Z,81.82
2022-12-03T21:41:29.788Z,81.91
2022-12-03T21:47:12.136Z,81.90
2022-12-03T21:52:03.569Z,81.89
2022-12-03T21:57:10.585Z,81.92
2022-12-03T22:02:17.530Z,81.80
2022-12-03T22:07:24.579Z,81.79
2022-12-03T22:12:31.786Z,82.02
2022-12-03T22:17:39.252Z,81.98
2022-12-03T22:22:46.531Z,82.09
2022-12-03T22:27:53.416Z,82.06
2022-12-03T22:33:00.275Z,81.96
2022-12-03T22:38:07.133Z,82.16
2022-12-03T22:43:13.986Z,82.04
2022-12-03T22:48:20.919Z,82.07
2022-12-03T22:53:27.781Z,82.22
2022-12-03T22:58:34.904Z,82.12
2022-12-03T23:03:41.836Z,82.07
2022-12-03T23:08:48.934Z,82.05
2022-12-03T23:13:56.412Z,82.24
2022-12-03T23:19:04.865Z,82.22
2022-12-03T23:24:12.810Z,82.35
2022-12-03T23:29:18.125Z,82.39
2022-12-03T23:34:24.975Z,82.33
2022-12-03T23:39:31.926Z,82.56
2022-12-03T23:44:39.229Z,82.48
2022-12-03T23:49:46.141Z,82.49
2022-12-03T23:54:52.991Z,82.45
2022-12-03T23:59:59.871Z,82.41
